Time;durP1;ratioP1;P1;durP2;ratioP2;P2;SDS_P1;SDS_P2;PMS_P1;PMS_P2;Temp;Humidity;BMP_temperature;BMP_pressure;BME280_temperature;BME280_humidity;BME280_pressure;Samples;Min_cycle;Max_cycle;Signal;HPM_P1;HPM_P2
2023/01/11 00:00:01;;;;;;;5.00;3.10;;;;;;;7.50;100.00;100550.66;1043264;28;20295;-77
2023/01/11 00:00:45;;;;;;;3.85;2.75;;;;;;;7.46;100.00;100552.06;1043077;28;20325;-77
2023/01/11 00:01:16;;;;;;;4.93;3.28;;;;;;;7.47;100.00;100547.59;1042545;28;20130;-77
2023/01/11 00:01:49;;;;;;;3.42;3.08;;;;;;;7.46;100.00;100541.47;1037721;28;20812;-77
2023/01/11 00:02:21;;;;;;;7.05;2.92;;;;;;;7.49;100.00;100550.84;1035217;28;20706;-77
2023/01/11 00:03:00;;;;;;;2.80;2.60;;;;;;;7.55;100.00;100534.94;1035266;28;20370;-77
2023/01/11 00:03:32;;;;;;;3.22;2.95;;;;;;;7.54;100.00;100548.41;1042982;28;20306;-76
2023/01/11 00:04:03;;;;;;;5.95;3.25;;;;;;;7.54;100.00;100538.63;1038731;28;20808;-78
2023/01/11 00:04:35;;;;;;;3.13;2.80;;;;;;;7.54;100.00;100543.09;1040936;28;20300;-76
2023/01/11 00:05:08;;;;;;;3.05;2.83;;;;;;;7.57;100.00;100538.22;1039128;28;20300;-77
2023/01/11 00:05:41;;;;;;;3.30;3.00;;;;;;;7.58;100.00;100529.22;1039336;28;20844;-76
2023/01/11 00:06:12;;;;;;;2.83;2.63;;;;;;;7.58;100.00;100534.53;1042942;28;20302;-76
2023/01/11 00:06:44;;;;;;;4.78;3.00;;;;;;;7.60;100.00;100548.41;1044273;28;20327;-76
2023/01/11 00:07:16;;;;;;;5.30;2.80;;;;;;;7.63;100.00;100531.28;1043772;28;20410;-77
2023/01/11 00:07:47;;;;;;;2.88;2.55;;;;;;;7.59;100.00;100536.16;1047063;28;20782;-77
2023/01/11 00:08:20;;;;;;;2.78;2.58;;;;;;;7.58;100.00;100539.03;1039342;28;20382;-76
2023/01/11 00:08:52;;;;;;;4.00;2.55;;;;;;;7.57;100.00;100532.91;1039582;28;20346;-77
2023/01/11 00:09:24;;;;;;;5.63;3.03;;;;;;;7.59;100.00;100536.16;1038801;28;20687;-76
2023/01/11 00:09:55;;;;;;;2.80;2.33;;;;;;;7.62;100.00;100541.06;1039855;28;20402;-76
2023/01/11 00:10:28;;;;;;;4.93;3.30;;;;;;;7.61;100.00;100538.59;1038953;28;20311;-76
2023/01/11 00:11:01;;;;;;;4.75;2.75;;;;;;;7.62;100.00;100548.19;1039403;28;20662;-76
2023/01/11 00:11:33;;;;;;;3.78;2.65;;;;;;;7.62;100.00;100546.34;1043399;28;20287;-77
2023/01/11 00:12:04;;;;;;;4.13;2.47;;;;;;;7.64;100.00;100536.38;1035654;28;20829;-77
2023/01/11 00:12:36;;;;;;;3.92;3.63;;;;;;;7.68;100.00;100542.09;1039255;28;20288;-76
2023/01/11 00:13:07;;;;;;;4.18;2.78;;;;;;;7.64;100.00;100531.06;1039323;28;20687;-76
2023/01/11 00:13:39;;;;;;;3.90;2.78;;;;;;;7.69;100.00;100539.25;1039642;28;20304;-76
2023/01/11 00:14:10;;;;;;;3.47;3.17;;;;;;;7.71;100.00;100528.44;1042973;28;20971;-75
2023/01/11 00:14:42;;;;;;;3.58;3.28;;;;;;;7.80;100.00;100536.97;1039746;28;20300;-76
2023/01/11 00:15:14;;;;;;;4.72;3.33;;;;;;;7.74;100.00;100539.44;1038750;28;20308;-76
2023/01/11 00:15:46;;;;;;;2.78;2.47;;;;;;;7.75;100.00;100538.41;1039426;28;20307;-78
2023/01/11 00:16:17;;;;;;;4.38;2.92;;;;;;;7.81;100.00;100538.59;1037457;28;20766;-77
2023/01/11 00:16:49;;;;;;;2.95;2.65;;;;;;;7.73;100.00;100532.50;1030668;28;20703;-76
2023/01/11 00:17:21;;;;;;;2.97;2.65;;;;;;;7.75;100.00;100530.47;1031245;28;20775;-77
2023/01/11 00:17:52;;;;;;;3.30;2.97;;;;;;;7.74;100.00;100536.78;1035731;28;20670;-77
2023/01/11 00:18:24;;;;;;;5.45;4.32;;;;;;;7.78;100.00;100533.72;1035365;28;20312;-76
2023/01/11 00:18:55;;;;;;;3.08;2.60;;;;;;;7.75;100.00;100532.31;1037755;28;20299;-76
2023/01/11 00:19:27;;;;;;;3.25;3.05;;;;;;;7.77;100.00;100537.41;1038904;28;20292;-77
2023/01/11 00:19:58;;;;;;;7.25;2.67;;;;;;;7.72;100.00;100538.81;1039313;28;20852;-77
2023/01/11 00:20:30;;;;;;;5.50;3.13;;;;;;;7.81;100.00;100528.00;1035307;28;20305;-76
2023/01/11 00:21:04;;;;;;;6.05;2.90;;;;;;;7.85;100.00;100529.22;1034931;28;20416;-76
2023/01/11 00:21:36;;;;;;;3.13;2.75;;;;;;;7.80;100.00;100529.84;1035097;28;20885;-77
2023/01/11 00:22:07;;;;;;;3.65;3.35;;;;;;;7.84;100.00;100527.59;1036393;28;20289;-77
2023/01/11 00:22:39;;;;;;;6.50;3.20;;;;;;;7.82;100.00;100530.44;1039465;28;20378;-78
2023/01/11 00:23:10;;;;;;;4.28;3.30;;;;;;;7.81;100.00;100528.00;1043544;28;20384;-77
2023/01/11 00:23:42;;;;;;;5.03;2.75;;;;;;;7.82;100.00;100524.34;1042386;28;20310;-77
2023/01/11 00:24:14;;;;;;;2.83;2.50;;;;;;;7.82;100.00;100524.34;1043372;28;20311;-78
2023/01/11 00:24:45;;;;;;;4.18;2.58;;;;;;;7.84;100.00;100523.09;1039158;28;20312;-77
2023/01/11 00:25:17;;;;;;;5.07;2.95;;;;;;;7.84;100.00;100524.94;1039208;28;20296;-76
2023/01/11 00:25:48;;;;;;;5.28;3.28;;;;;;;7.85;100.00;100518.63;1039107;28;20331;-76
2023/01/11 00:26:20;;;;;;;3.17;2.85;;;;;;;7.88;100.00;100519.00;1039622;28;20304;-76
2023/01/11 00:26:52;;;;;;;3.30;3.00;;;;;;;7.88;100.00;100520.84;1042471;28;20330;-76
2023/01/11 00:27:23;;;;;;;5.68;5.13;;;;;;;7.84;100.00;100523.09;1039362;28;20366;-76
2023/01/11 00:27:55;;;;;;;3.78;3.08;;;;;;;7.87;100.00;100521.88;1039137;28;20315;-76
2023/01/11 00:28:26;;;;;;;4.20;2.88;;;;;;;7.89;100.00;100519.81;1039313;28;20311;-76
2023/01/11 00:28:58;;;;;;;7.57;2.92;;;;;;;7.87;100.00;100520.03;1039256;28;20675;-76
2023/01/11 00:29:30;;;;;;;7.03;2.90;;;;;;;7.88;100.00;100512.91;1043542;28;20307;-77
2023/01/11 00:30:02;;;;;;;5.10;3.15;;;;;;;7.87;100.00;100527.19;1043052;28;20330;-76
2023/01/11 00:30:34;;;;;;;4.00;3.00;;;;;;;7.87;100.00;100532.47;1043272;28;20307;-76
2023/01/11 00:31:06;;;;;;;6.00;2.90;;;;;;;7.92;100.00;100519.41;1047533;28;20295;-77
2023/01/11 00:31:37;;;;;;;3.33;2.80;;;;;;;7.93;100.00;100521.03;1043637;28;20874;-77
2023/01/11 00:32:09;;;;;;;2.72;2.53;;;;;;;7.89;100.00;100515.34;1046922;28;20309;-76
2023/01/11 00:32:41;;;;;;;3.22;2.88;;;;;;;7.99;100.00;100526.34;1045185;28;20294;-76
2023/01/11 00:33:12;;;;;;;2.78;2.58;;;;;;;7.99;100.00;100506.97;1038763;28;20307;-77
2023/01/11 00:33:44;;;;;;;7.00;2.90;;;;;;;7.96;100.00;100518.81;1033824;28;20312;-78
2023/01/11 00:34:18;;;;;;;3.65;3.10;;;;;;;7.94;100.00;100517.38;1035378;28;20806;-77
2023/01/11 00:34:50;;;;;;;5.93;3.00;;;;;;;7.98;100.00;100508.00;1039996;28;20296;-76
2023/01/11 00:35:21;;;;;;;6.13;3.25;;;;;;;7.94;100.00;100517.38;1043766;28;20299;-76
2023/01/11 00:35:53;;;;;;;4.70;3.17;;;;;;;8.00;100.00;100500.66;1046217;28;20381;-76
2023/01/11 00:36:25;;;;;;;2.90;2.60;;;;;;;7.98;100.00;100514.13;1039867;28;20778;-76
2023/01/11 00:36:57;;;;;;;6.10;3.10;;;;;;;8.01;100.00;100510.22;1034576;28;20746;-76
2023/01/11 00:37:28;;;;;;;6.85;3.00;;;;;;;8.01;100.00;100513.69;1034858;28;20868;-76
2023/01/11 00:38:00;;;;;;;5.57;2.83;;;;;;;8.02;100.00;100514.50;1031620;28;20293;-77
2023/01/11 00:38:45;;;;;;;5.90;3.47;;;;;;;8.01;100.00;100518.19;1027006;28;20795;-76
2023/01/11 00:39:17;;;;;;;2.60;2.33;;;;;;;8.00;100.00;100508.59;1027089;28;20298;-78
2023/01/11 00:39:48;;;;;;;3.55;2.47;;;;;;;7.99;100.00;100504.31;1028927;28;20400;-77
2023/01/11 00:40:20;;;;;;;4.53;2.60;;;;;;;8.00;100.00;100505.94;1037684;28;20814;-76
2023/01/11 00:40:52;;;;;;;3.58;3.13;;;;;;;7.99;100.00;100505.13;1039600;28;20365;-76
2023/01/11 00:47:59;;;;;;;6.35;3.20;;;;;;;8.03;100.00;100505.53;1026442;28;20299;-77
2023/01/11 00:48:31;;;;;;;4.50;2.72;;;;;;;8.04;100.00;100504.50;1036287;28;20849;-76
2023/01/11 00:49:02;;;;;;;3.30;2.83;;;;;;;8.06;100.00;100499.81;1034155;28;20375;-76
2023/01/11 00:49:34;;;;;;;3.58;2.15;;;;;;;8.08;100.00;100492.47;1034308;28;20375;-77
2023/01/11 00:50:06;;;;;;;4.60;2.95;;;;;;;8.05;100.00;100503.50;1039225;28;20331;-76
2023/01/11 00:50:39;;;;;;;4.35;2.25;;;;;;;8.03;100.00;100511.66;1039085;28;20386;-76
2023/01/11 00:51:11;;;;;;;3.20;2.92;;;;;;;8.08;100.00;100497.75;1038760;28;20299;-76
2023/01/11 00:51:42;;;;;;;4.07;2.72;;;;;;;8.06;100.00;100505.13;1031538;28;20763;-76
2023/01/11 00:52:16;;;;;;;3.75;2.85;;;;;;;8.12;100.00;100504.28;1031930;28;20775;-77
2023/01/11 00:52:47;;;;;;;6.63;2.63;;;;;;;8.07;100.00;100506.75;1034794;28;20300;-76
2023/01/11 00:53:19;;;;;;;3.95;2.67;;;;;;;8.10;100.00;100506.31;1035279;28;20320;-76
2023/01/11 00:53:51;;;;;;;5.05;2.70;;;;;;;8.14;100.00;100496.09;1035890;28;20311;-76
2023/01/11 00:54:22;;;;;;;6.47;3.30;;;;;;;8.13;100.00;100500.59;1034495;28;20300;-77
2023/01/11 00:54:54;;;;;;;5.43;3.22;;;;;;;8.07;100.00;100504.91;1038355;28;20459;-76
2023/01/11 00:55:26;;;;;;;6.65;2.67;;;;;;;8.11;100.00;100501.84;1043357;28;20379;-76
2023/01/11 00:55:58;;;;;;;5.15;3.40;;;;;;;8.07;100.00;100506.75;1039452;28;20308;-77
2023/01/11 00:56:29;;;;;;;7.05;3.38;;;;;;;8.11;100.00;100499.19;1042721;28;20303;-77
2023/01/11 00:57:01;;;;;;;4.97;2.58;;;;;;;8.15;100.00;100506.50;1043780;28;20780;-77
2023/01/11 00:57:33;;;;;;;7.30;3.15;;;;;;;8.18;100.00;100499.97;1039508;28;20797;-76
2023/01/11 00:58:08;;;;;;;3.63;2.88;;;;;;;8.16;100.00;100510.78;1038818;28;20307;-76
2023/01/11 00:58:40;;;;;;;4.90;3.33;;;;;;;8.17;100.00;100511.59;1034295;28;20301;-76
2023/01/11 00:59:11;;;;;;;6.18;2.92;;;;;;;8.11;100.00;100510.59;1032789;28;20858;-76
2023/01/11 00:59:43;;;;;;;9.20;3.60;;;;;;;8.08;100.00;100505.72;1031001;28;20810;-76
2023/01/11 01:00:15;;;;;;;3.47;3.17;;;;;;;8.13;100.00;100502.44;1034383;28;20431;-77
2023/01/11 01:00:47;;;;;;;6.57;3.22;;;;;;;8.12;100.00;100498.97;1034601;28;20687;-76
2023/01/11 01:01:18;;;;;;;7.95;2.88;;;;;;;8.12;100.00;100508.78;1031384;28;20711;-76
2023/01/11 01:01:50;;;;;;;3.05;2.75;;;;;;;8.12;100.00;100506.94;1038718;28;20318;-76
2023/01/11 01:02:21;;;;;;;4.05;3.03;;;;;;;8.15;100.00;100501.22;1036974;28;20431;-77
2023/01/11 01:02:53;;;;;;;3.65;3.28;;;;;;;8.14;100.00;100499.56;1039391;28;20390;-77
2023/01/11 01:03:25;;;;;;;4.15;3.10;;;;;;;8.16;100.00;100500.19;1047070;28;20299;-76
2023/01/11 01:03:57;;;;;;;3.10;2.90;;;;;;;8.14;100.00;100502.22;1047417;28;20672;-76
2023/01/11 01:04:29;;;;;;;7.80;3.90;;;;;;;8.18;100.00;100500.78;1042791;28;20314;-77
2023/01/11 01:05:00;;;;;;;3.35;2.75;;;;;;;8.18;100.00;100503.44;1046955;28;20440;-77
2023/01/11 01:05:32;;;;;;;3.90;2.83;;;;;;;8.17;100.00;100501.81;1048158;28;20287;-76
2023/01/11 01:06:04;;;;;;;3.20;2.90;;;;;;;8.19;100.00;100505.06;1052188;28;20293;-76
2023/01/11 01:06:35;;;;;;;3.45;3.13;;;;;;;8.19;100.00;100509.56;1047336;28;20796;-76
2023/01/11 01:07:07;;;;;;;4.40;3.70;;;;;;;8.23;100.00;100495.69;1039786;28;20295;-77
2023/01/11 01:07:40;;;;;;;4.88;3.35;;;;;;;8.20;100.00;100501.38;1034048;28;20335;-76
2023/01/11 01:08:11;;;;;;;3.05;2.75;;;;;;;8.23;100.00;100505.50;1028477;28;20306;-77
2023/01/11 01:08:43;;;;;;;3.10;2.58;;;;;;;8.27;100.00;100496.91;1032356;28;20509;-77
2023/01/11 01:09:14;;;;;;;3.45;3.15;;;;;;;8.25;100.00;100514.06;1029795;28;20322;-77
2023/01/11 01:09:46;;;;;;;3.47;2.55;;;;;;;8.24;100.00;100507.94;1035105;28;20384;-77
2023/01/11 01:10:18;;;;;;;4.32;2.90;;;;;;;8.23;100.00;100506.31;1036251;28;20451;-76
2023/01/11 01:10:53;;;;;;;7.45;2.95;;;;;;;8.23;100.00;100506.31;1035399;28;20872;-77
2023/01/11 01:11:24;;;;;;;4.57;2.88;;;;;;;8.34;100.00;100508.34;1039470;28;20299;-77
2023/01/11 01:11:56;;;;;;;3.75;3.10;;;;;;;8.28;100.00;100500.38;1036351;28;20374;-76
2023/01/11 01:14:27;;;;;;;4.72;2.72;;;;;;;8.24;100.00;100492.00;1047727;28;20452;-76
2023/01/11 01:14:58;;;;;;;5.75;2.92;;;;;;;8.25;100.00;100498.94;1047704;28;20344;-77
2023/01/11 01:15:31;;;;;;;3.78;2.60;;;;;;;8.26;100.00;100495.28;1046549;28;20303;-76
2023/01/11 01:16:03;;;;;;;3.55;2.67;;;;;;;8.29;100.00;100494.84;1039586;28;20295;-77
2023/01/11 01:16:35;;;;;;;5.10;2.92;;;;;;;8.29;100.00;100494.84;1035651;28;20289;-76
2023/01/11 01:17:07;;;;;;;6.35;3.30;;;;;;;8.34;100.00;100492.41;1035458;28;20311;-76
2023/01/11 01:17:39;;;;;;;4.38;3.05;;;;;;;8.29;100.00;100492.19;1032651;28;20352;-76
2023/01/11 01:18:10;;;;;;;5.68;3.15;;;;;;;8.29;100.00;100500.16;1036545;28;20293;-78
2023/01/11 01:18:43;;;;;;;6.47;3.13;;;;;;;8.31;100.00;100492.81;1039195;28;20307;-76
2023/01/11 01:19:14;;;;;;;7.82;3.15;;;;;;;8.34;100.00;100496.91;1040217;28;20300;-76
2023/01/11 01:19:46;;;;;;;4.45;3.15;;;;;;;8.34;100.00;100487.09;1040660;28;20303;-76
2023/01/11 01:20:19;;;;;;;6.00;2.88;;;;;;;8.31;100.00;100487.50;1043744;28;20302;-78
2023/01/11 01:20:51;;;;;;;5.53;2.75;;;;;;;8.32;100.00;100494.44;1035411;28;20387;-77
2023/01/11 01:21:23;;;;;;;6.32;2.58;;;;;;;8.30;100.00;100493.81;1035604;28;20304;-76
2023/01/11 01:21:55;;;;;;;4.20;3.45;;;;;;;8.35;100.00;100494.03;1036342;28;20289;-76
2023/01/11 01:22:27;;;;;;;2.97;2.65;;;;;;;8.35;100.00;100486.06;1036097;28;20311;-77
2023/01/11 01:22:59;;;;;;;6.97;3.05;;;;;;;8.34;100.00;100480.97;1037952;28;20308;-76
2023/01/11 01:23:30;;;;;;;4.25;2.72;;;;;;;8.30;100.00;100483.22;1041241;28;20322;-77
2023/01/11 01:24:02;;;;;;;5.50;2.65;;;;;;;8.27;100.00;100486.28;1039485;28;20307;-76
2023/01/11 01:24:34;;;;;;;4.85;3.00;;;;;;;8.25;100.00;100477.72;1039956;28;20308;-76
2023/01/11 01:25:05;;;;;;;3.45;2.90;;;;;;;8.28;100.00;100482.59;1040021;28;20315;-76
2023/01/11 01:25:37;;;;;;;3.65;2.65;;;;;;;8.27;100.00;100486.28;1040170;28;20300;-76
2023/01/11 01:26:08;;;;;;;2.70;2.20;;;;;;;8.33;100.00;100477.50;1044217;28;20335;-76
2023/01/11 01:26:41;;;;;;;4.13;2.67;;;;;;;8.32;100.00;100485.66;1046114;28;20886;-76
2023/01/11 01:27:16;;;;;;;5.88;3.08;;;;;;;8.27;100.00;100483.63;1035331;28;20417;-78
2023/01/11 01:27:47;;;;;;;2.97;2.67;;;;;;;8.29;100.00;100486.88;1036396;28;20386;-77
2023/01/11 01:28:20;;;;;;;3.72;3.42;;;;;;;8.29;100.00;100488.72;1035680;28;20790;-76
2023/01/11 01:28:52;;;;;;;6.78;4.18;;;;;;;8.29;100.00;100484.25;1039989;28;20766;-76
2023/01/11 01:29:25;;;;;;;3.83;3.42;;;;;;;8.27;100.00;100480.97;1043544;28;20657;-77
2023/01/11 01:29:57;;;;;;;2.97;2.10;;;;;;;8.27;100.00;100488.94;1045037;28;20306;-77
2023/01/11 01:30:29;;;;;;;8.75;2.65;;;;;;;8.29;100.00;100494.84;1047206;28;20334;-76
2023/01/11 01:31:00;;;;;;;3.35;2.85;;;;;;;8.29;100.00;100494.84;1043404;28;20361;-77
2023/01/11 01:31:32;;;;;;;2.53;2.33;;;;;;;8.30;100.00;100485.88;1044109;28;20303;-77
2023/01/11 01:32:04;;;;;;;4.88;2.97;;;;;;;8.29;100.00;100492.19;1043568;28;20303;-77
2023/01/11 01:32:36;;;;;;;7.45;2.88;;;;;;;8.31;100.00;100486.69;1043593;28;20298;-77
2023/01/11 01:33:07;;;;;;;3.13;2.63;;;;;;;8.33;100.00;100487.28;1041040;28;20785;-78
2023/01/11 01:33:39;;;;;;;5.00;3.08;;;;;;;8.36;100.00;100490.34;1040564;28;20339;-76
2023/01/11 01:34:11;;;;;;;7.07;2.83;;;;;;;8.32;100.00;100486.47;1042256;28;20331;-76
2023/01/11 01:34:42;;;;;;;4.88;4.07;;;;;;;8.32;100.00;100483.81;1035238;28;20315;-76
2023/01/11 01:35:14;;;;;;;3.45;3.08;;;;;;;8.44;100.00;100480.53;1036382;28;20293;-77
2023/01/11 01:35:46;;;;;;;3.92;2.92;;;;;;;8.38;100.00;100491.97;1040041;28;20697;-77
2023/01/11 01:36:17;;;;;;;10.30;3.60;;;;;;;8.36;100.00;100479.75;1043509;28;20345;-78
2023/01/11 01:36:49;;;;;;;5.97;2.97;;;;;;;8.37;100.00;100485.88;1043534;28;20287;-76
2023/01/11 01:37:20;;;;;;;3.22;2.92;;;;;;;8.36;100.00;100490.34;1039330;28;20304;-76
2023/01/11 01:37:52;;;;;;;5.28;3.00;;;;;;;8.35;100.00;100488.72;1039510;28;20394;-77
2023/01/11 01:38:23;;;;;;;4.80;2.78;;;;;;;8.36;100.00;100486.88;1040267;28;20385;-77
2023/01/11 01:38:55;;;;;;;4.55;2.92;;;;;;;8.33;100.00;100485.47;1044724;28;20348;-77
2023/01/11 01:39:27;;;;;;;3.03;2.45;;;;;;;8.35;100.00;100495.88;1043373;28;20299;-77
2023/01/11 01:39:58;;;;;;;3.55;3.25;;;;;;;8.41;100.00;100491.56;1043987;28;20800;-77
2023/01/11 01:40:30;;;;;;;3.95;2.85;;;;;;;8.34;100.00;100497.72;1039545;28;20709;-77
2023/01/11 01:41:02;;;;;;;2.60;2.40;;;;;;;8.36;100.00;100489.53;1039934;28;20295;-77
2023/01/11 01:41:34;;;;;;;4.38;2.88;;;;;;;8.35;100.00;100494.03;1039782;28;20349;-77
2023/01/11 01:42:17;;;;;;;3.53;2.38;;;;;;;8.38;100.00;100495.44;1039844;28;20351;-78
2023/01/11 01:42:53;;;;;;;6.78;3.05;;;;;;;8.39;100.00;100493.63;1039712;28;20304;-76
2023/01/11 01:43:51;;;;;;;6.68;2.97;;;;;;;8.40;100.00;100495.25;1039729;28;20338;-77
2023/01/11 01:44:48;;;;;;;3.55;2.17;;;;;;;8.40;100.00;100492.59;1038492;28;20283;-76
2023/01/11 01:45:27;;;;;;;2.65;2.45;;;;;;;8.43;100.00;100484.19;1043237;28;20781;-76
2023/01/11 01:46:00;;;;;;;2.65;2.15;;;;;;;8.43;100.00;100492.16;1036364;28;20376;-76
2023/01/11 01:46:32;;;;;;;5.00;2.47;;;;;;;8.37;100.00;100475.25;1039272;28;20896;-78
2023/01/11 01:47:04;;;;;;;2.83;2.55;;;;;;;8.36;100.00;100492.19;1039539;28;20315;-77
2023/01/11 01:47:53;;;;;;;3.05;2.20;;;;;;;8.43;100.00;100494.81;1037057;28;21921;-78
2023/01/11 01:48:25;;;;;;;4.40;2.20;;;;;;;8.41;100.00;100486.25;1043392;28;20306;-77
2023/01/11 01:49:07;;;;;;;4.03;2.22;;;;;;;8.39;100.00;100493.63;1042708;28;20303;-77
2023/01/11 01:49:39;;;;;;;3.15;2.50;;;;;;;8.42;100.00;100501.16;1035906;28;20304;-76
2023/01/11 01:50:18;;;;;;;2.75;2.55;;;;;;;8.40;100.00;100500.53;1027707;28;20705;-77
2023/01/11 01:50:52;;;;;;;3.75;3.00;;;;;;;8.42;100.00;100482.56;1030149;28;20313;-77
2023/01/11 01:51:31;;;;;;;3.53;2.42;;;;;;;8.42;100.00;100499.31;1023588;28;20310;-77
2023/01/11 01:52:03;;;;;;;3.38;2.97;;;;;;;8.42;100.00;100498.50;1028872;28;21854;-76
2023/01/11 01:52:34;;;;;;;7.03;2.58;;;;;;;8.42;100.00;100496.66;1029519;28;20298;-76
2023/01/11 01:53:13;;;;;;;2.95;2.25;;;;;;;8.42;100.00;100498.50;1036703;28;20300;-77
2023/01/11 01:53:46;;;;;;;5.97;2.60;;;;;;;8.42;100.00;100485.22;1040253;28;20955;-77
2023/01/11 01:54:22;;;;;;;4.35;2.72;;;;;;;8.43;100.00;100500.13;1040046;28;20315;-76
2023/01/11 01:54:56;;;;;;;2.70;2.50;;;;;;;8.44;100.00;100499.09;1032850;28;20387;-76
2023/01/11 01:55:32;;;;;;;2.65;2.42;;;;;;;8.42;100.00;100493.19;1030063;28;20326;-77
2023/01/11 01:56:19;;;;;;;3.67;2.45;;;;;;;8.42;100.00;100501.16;1027715;28;21021;-77
2023/01/11 01:56:59;;;;;;;3.75;3.42;;;;;;;8.43;100.00;100485.00;1034139;28;20303;-76
2023/01/11 01:57:34;;;;;;;2.72;2.53;;;;;;;8.42;100.00;100498.50;1035292;28;20659;-76
2023/01/11 01:58:09;;;;;;;2.42;2.20;;;;;;;8.41;100.00;100489.72;1039536;28;20296;-76
2023/01/11 01:58:46;;;;;;;4.03;2.05;;;;;;;8.43;100.00;100494.81;1044924;28;20338;-76
2023/01/11 01:59:19;;;;;;;4.55;2.45;;;;;;;8.42;100.00;100485.22;1047833;28;20302;-78
2023/01/11 01:59:51;;;;;;;4.18;2.38;;;;;;;8.42;100.00;100482.56;1045993;28;20379;-76
2023/01/11 02:00:23;;;;;;;2.38;2.17;;;;;;;8.45;100.00;100476.84;1039374;28;20311;-76
2023/01/11 02:00:55;;;;;;;5.25;2.22;;;;;;;8.41;100.00;100487.06;1043506;28;20792;-76
2023/01/11 02:02:18;;;;;;;4.65;2.58;;;;;;;8.44;100.00;100485.81;1054822;28;20320;-76
2023/01/11 02:02:50;;;;;;;5.00;2.72;;;;;;;8.46;100.00;100481.13;1045711;28;20379;-76
2023/01/11 02:03:24;;;;;;;5.70;2.83;;;;;;;8.44;100.00;100486.66;1035493;28;20304;-76
2023/01/11 02:03:55;;;;;;;3.00;2.55;;;;;;;8.45;100.00;100482.16;1031424;28;20416;-76
2023/01/11 02:04:29;;;;;;;2.67;2.38;;;;;;;8.48;100.00;100492.34;1035460;28;20644;-77
2023/01/11 02:05:00;;;;;;;3.25;2.22;;;;;;;8.44;100.00;100489.28;1041482;28;20460;-76
2023/01/11 02:05:32;;;;;;;3.85;2.60;;;;;;;8.51;100.00;100482.16;1048792;28;20687;-76
2023/01/11 02:06:04;;;;;;;5.55;2.75;;;;;;;8.47;100.00;100478.25;1046119;28;20302;-76
2023/01/11 02:06:36;;;;;;;4.57;2.83;;;;;;;8.45;100.00;100482.16;1039466;28;20397;-77
2023/01/11 02:07:11;;;;;;;7.72;3.08;;;;;;;8.47;100.00;100485.41;1035705;28;20690;-76
2023/01/11 02:07:43;;;;;;;3.95;2.65;;;;;;;8.44;100.00;100477.88;1036528;28;20648;-78
2023/01/11 02:08:36;;;;;;;5.05;2.95;;;;;;;8.44;100.00;100488.47;1040659;28;20804;-77
2023/01/11 02:09:24;;;;;;;4.28;2.42;;;;;;;8.52;100.00;100488.25;1043460;28;20295;-77
2023/01/11 02:10:12;;;;;;;5.22;2.47;;;;;;;8.50;100.00;100485.81;1039288;28;20319;-76
2023/01/11 02:10:43;;;;;;;3.83;3.38;;;;;;;8.49;100.00;100486.00;1039500;28;20689;-76
2023/01/11 02:11:31;;;;;;;2.47;2.28;;;;;;;8.49;100.00;100488.66;1039244;28;20976;-76
2023/01/11 02:12:03;;;;;;;2.47;2.28;;;;;;;8.50;100.00;100479.69;1047914;28;20299;-76
2023/01/11 02:12:39;;;;;;;2.60;2.40;;;;;;;8.48;100.00;100487.03;1043034;28;20428;-76
2023/01/11 02:13:13;;;;;;;7.07;2.58;;;;;;;8.49;100.00;100483.34;1039797;28;20343;-76
2023/01/11 02:13:44;;;;;;;7.47;2.50;;;;;;;8.50;100.00;100477.03;1037104;28;20293;-76
2023/01/11 02:14:18;;;;;;;2.97;2.25;;;;;;;8.54;100.00;100483.56;1038867;28;20445;-77
2023/01/11 02:14:50;;;;;;;4.35;2.65;;;;;;;8.53;100.00;100484.59;1041391;28;20633;-76
2023/01/11 02:15:22;;;;;;;6.07;2.25;;;;;;;8.54;100.00;100480.91;1040701;28;20304;-77
2023/01/11 02:16:07;;;;;;;4.07;2.90;;;;;;;8.51;100.00;100482.16;1039382;28;20370;-76
2023/01/11 02:16:39;;;;;;;3.28;2.50;;;;;;;8.48;100.00;100487.84;1034028;28;20297;-76
2023/01/11 02:17:11;;;;;;;2.38;2.03;;;;;;;8.49;100.00;100486.00;1033579;28;20321;-76
2023/01/11 02:17:43;;;;;;;2.78;2.50;;;;;;;8.48;100.00;100487.03;1037711;28;20605;-76
2023/01/11 02:18:14;;;;;;;4.75;2.35;;;;;;;8.48;100.00;100482.53;1039623;28;20300;-76
2023/01/11 02:18:46;;;;;;;6.07;2.50;;;;;;;8.49;100.00;100483.34;1031377;28;20372;-76
2023/01/11 02:19:28;;;;;;;2.35;1.92;;;;;;;8.49;100.00;100478.88;1035871;28;20313;-76
2023/01/11 02:20:02;;;;;;;2.47;2.08;;;;;;;8.51;100.00;100476.03;1039309;28;20315;-79
2023/01/11 02:20:44;;;;;;;3.75;2.20;;;;;;;8.51;100.00;100476.03;1039800;28;20352;-78
2023/01/11 02:21:26;;;;;;;3.00;2.60;;;;;;;8.54;100.00;100475.59;1039199;28;20295;-76
2023/01/11 02:22:36;;;;;;;2.42;2.22;;;;;;;8.53;100.00;100484.59;1039347;28;20730;-77
2023/01/11 02:23:45;;;;;;;2.78;2.33;;;;;;;8.56;100.00;100479.66;1041284;28;20788;-77
2023/01/11 02:24:47;;;;;;;6.53;2.20;;;;;;;8.53;100.00;100474.78;1039620;28;20304;-77
2023/01/11 02:25:43;;;;;;;2.20;2.00;;;;;;;8.54;100.00;100472.94;1043630;28;20303;-77
2023/01/11 02:26:43;;;;;;;2.28;1.98;;;;;;;8.57;100.00;100488.44;1039418;28;20296;-77
2023/01/11 02:27:20;;;;;;;4.35;1.90;;;;;;;8.58;100.00;100471.47;1030852;28;20301;-77
2023/01/11 02:28:06;;;;;;;1.85;1.75;;;;;;;8.61;100.00;100465.75;1031829;28;20305;-77
2023/01/11 02:28:51;;;;;;;3.83;2.35;;;;;;;8.57;100.00;100465.38;1041534;28;20386;-77
2023/01/11 02:29:44;;;;;;;6.32;2.67;;;;;;;8.54;100.00;100467.63;1047868;28;20341;-76
2023/01/11 02:30:22;;;;;;;2.58;1.92;;;;;;;8.57;100.00;100468.03;1047912;28;20310;-77
2023/01/11 02:31:04;;;;;;;5.75;2.45;;;;;;;8.59;100.00;100473.13;1043582;28;20295;-76
2023/01/11 02:31:55;;;;;;;2.67;2.28;;;;;;;8.61;100.00;100465.75;1039197;28;20292;-76
2023/01/11 02:32:39;;;;;;;2.78;2.33;;;;;;;8.61;100.00;100471.06;1035665;28;20296;-77
2023/01/11 02:33:47;;;;;;;3.28;2.00;;;;;;;8.62;100.00;100478.00;1040137;28;20440;-76
2023/01/11 02:34:51;;;;;;;2.33;1.85;;;;;;;8.71;100.00;100466.09;1046251;28;20356;-78
2023/01/11 02:35:47;;;;;;;2.50;2.13;;;;;;;8.68;100.00;100469.19;1047880;28;20389;-76
2023/01/11 02:36:45;;;;;;;4.50;2.05;;;;;;;8.65;100.00;100461.63;1047904;28;20297;-76
2023/01/11 02:37:52;;;;;;;1.92;1.80;;;;;;;8.70;100.00;100464.47;1042997;28;20370;-78
2023/01/11 02:38:44;;;;;;;2.97;2.55;;;;;;;8.71;100.00;100460.78;1039242;28;20430;-76
2023/01/11 02:39:29;;;;;;;2.13;1.90;;;;;;;8.75;100.00;100461.97;1038798;28;20374;-76
2023/01/11 02:40:10;;;;;;;1.95;1.85;;;;;;;8.73;100.00;100468.53;1040857;28;20635;-76
2023/01/11 02:41:18;;;;;;;4.30;2.25;;;;;;;8.77;100.00;100465.25;1047246;28;20373;-77
2023/01/11 02:45:02;;;;;;;2.67;1.83;;;;;;;8.81;100.00;100471.78;1042977;28;20302;-77
2023/01/11 02:46:04;;;;;;;2.50;1.96;;;;;;;8.79;100.00;100463.22;1041930;28;20331;-76
2023/01/11 02:47:06;;;;;;;1.88;1.60;;;;;;;8.84;100.00;100476.66;1042780;28;20029;-77
2023/01/11 02:47:43;;;;;;;2.10;1.95;;;;;;;8.82;100.00;100476.06;1034327;28;20355;-77
2023/01/11 02:48:17;;;;;;;3.25;1.90;;;;;;;8.90;100.00;100475.78;1041382;28;20349;-78
2023/01/11 02:49:02;;;;;;;1.88;1.77;;;;;;;8.91;100.00;100461.47;1047514;28;20437;-77
2023/01/11 02:49:51;;;;;;;1.63;1.48;;;;;;;8.89;100.00;100465.38;1036013;28;20292;-79
2023/01/11 02:50:37;;;;;;;1.58;1.48;;;;;;;8.90;100.00;100475.78;1038796;28;20292;-77
2023/01/11 02:51:19;;;;;;;1.85;1.75;;;;;;;8.92;100.00;100479.03;1036411;28;20794;-76
2023/01/11 02:51:58;;;;;;;2.72;1.58;;;;;;;8.91;100.00;100469.44;1043459;28;20598;-77
2023/01/11 02:52:41;;;;;;;1.90;1.75;;;;;;;8.94;100.00;100470.84;1039654;28;20355;-76
2023/01/11 02:53:22;;;;;;;1.75;1.65;;;;;;;8.93;100.00;100475.34;1035157;28;20789;-76
2023/01/11 02:53:57;;;;;;;1.80;1.70;;;;;;;8.91;100.00;100474.75;1038962;28;20837;-77
2023/01/11 02:54:30;;;;;;;1.48;1.38;;;;;;;8.94;100.00;100466.34;1038902;28;20120;-77
2023/01/11 02:55:02;;;;;;;2.28;1.80;;;;;;;8.90;100.00;100465.16;1035476;28;20297;-77
2023/01/11 02:55:39;;;;;;;2.33;2.13;;;;;;;8.91;100.00;100471.28;1032580;28;20388;-75
2023/01/11 02:56:15;;;;;;;1.60;1.50;;;;;;;8.91;100.00;100466.78;1030147;28;20380;-75
2023/01/11 02:56:49;;;;;;;2.78;1.45;;;;;;;8.93;100.00;100462.06;1032889;28;20862;-76